Terminal Aerodrome Forecast
Issued by NWS

Home | Current Version | Previous Version | Text Only | Print | Product List | Glossary On
Versions: 1 2 3 4 5 6 7 8 9 10 11 12 13 14 15 16 17 18 19 20 21 22
594
FTUS43 KBIS 290123 AAA
TAFJMS
TAF AMD
KJMS 290123Z 2901/2924 34015KT P6SM VCSH BKN045
     FM290300 32013KT P6SM BKN040
     FM291200 32015G25KT P6SM OVC025
     FM291800 32019G29KT P6SM OVC035=

USA.gov is the U.S. government's official web portal to all federal, state and local government web resources and services.